Terminal Aerodrome Forecast
Issued by NWS

Home | Current Version | Previous Version | Text Only | Print | Product List | Glossary On
Versions: 1 2 3 4 5 6 7 8 9 10 11 12 13 14 15 16 17
000
FTUS45 KPSR 021125
TAFIPL
TAF
KIPL 021125Z 0212/0312 14006KT P6SM SCT120
     FM030000 27008KT P6SM FEW150 SCT250
     FM030300 25012G18KT P6SM SCT120 SCT250=

USA.gov is the U.S. government's official web portal to all federal, state and local government web resources and services.